createdAt,value
2022-12-29T00:00:07.361Z,14.86
2022-12-29T00:02:34.186Z,14.85
2022-12-29T00:05:01.044Z,14.87
2022-12-29T00:07:27.790Z,14.87
2022-12-29T00:09:54.512Z,14.87
2022-12-29T00:12:21.268Z,14.90
2022-12-29T00:15:20.152Z,14.91
2022-12-29T00:17:46.861Z,14.91
2022-12-29T00:20:32.126Z,14.92
2022-12-29T00:23:17.279Z,14.94
2022-12-29T00:26:08.184Z,14.97
2022-12-29T00:28:53.572Z,14.97
2022-12-29T00:31:39.101Z,14.98
2022-12-29T00:34:27.256Z,15.00
2022-12-29T00:36:54.027Z,15.01
2022-12-29T00:39:39.400Z,15.00
2022-12-29T00:42:27.658Z,15.01
2022-12-29T00:44:54.525Z,15.00
2022-12-29T00:47:21.305Z,15.00
2022-12-29T00:49:48.305Z,14.97
2022-12-29T00:52:15.173Z,14.97
2022-12-29T00:54:42.360Z,14.92
2022-12-29T00:57:10.929Z,14.91
2022-12-29T00:59:40.337Z,14.87
2022-12-29T01:02:08.609Z,14.87
2022-12-29T01:04:35.898Z,14.86
2022-12-29T01:07:02.640Z,14.84
2022-12-29T01:09:48.148Z,14.85
2022-12-29T01:12:14.945Z,14.85
2022-12-29T01:14:41.807Z,14.86
2022-12-29T01:17:08.894Z,14.86
2022-12-29T01:19:35.631Z,14.91
2022-12-29T01:22:02.456Z,14.91
2022-12-29T01:24:29.398Z,14.94
2022-12-29T01:26:56.329Z,14.93
2022-12-29T01:29:23.612Z,14.93
2022-12-29T01:31:50.987Z,14.92
2022-12-29T01:34:18.993Z,14.92
2022-12-29T01:36:45.807Z,14.90
2022-12-29T01:39:12.888Z,14.91
2022-12-29T01:41:41.432Z,14.91
2022-12-29T01:44:50.882Z,14.87
2022-12-29T01:47:55.530Z,14.82
2022-12-29T02:10:12.660Z,14.82
2022-12-29T02:13:16.287Z,14.85
2022-12-29T02:36:00.164Z,15.12
2022-12-29T02:38:41.706Z,15.12
2022-12-29T02:41:43.286Z,15.15
2022-12-29T02:44:30.262Z,15.18
2022-12-29T02:47:41.081Z,15.18
2022-12-29T02:50:23.024Z,15.19
2022-12-29T02:53:02.487Z,15.21
2022-12-29T02:55:30.653Z,15.21
2022-12-29T02:58:22.788Z,15.24
2022-12-29T03:01:22.962Z,15.24
2022-12-29T03:04:19.559Z,15.20
2022-12-29T03:07:57.497Z,15.16
2022-12-29T03:10:52.074Z,15.12
2022-12-29T03:14:14.400Z,15.09
2022-12-29T03:16:54.884Z,15.10
2022-12-29T03:19:36.703Z,15.14
2022-12-29T03:22:28.281Z,15.16
2022-12-29T03:25:06.458Z,15.20
2022-12-29T03:27:45.590Z,15.22
2022-12-29T03:30:13.890Z,15.22
2022-12-29T03:32:51.105Z,15.23
2022-12-29T03:35:25.044Z,15.25
2022-12-29T03:38:07.736Z,15.25
2022-12-29T03:40:35.662Z,15.22
2022-12-29T03:43:05.426Z,15.24
2022-12-29T03:45:32.227Z,15.22
2022-12-29T03:47:59.082Z,15.22
2022-12-29T03:50:25.799Z,15.23
2022-12-29T03:52:52.539Z,15.21
2022-12-29T03:55:19.440Z,15.22
2022-12-29T03:57:46.185Z,15.22
2022-12-29T04:00:14.199Z,15.23
2022-12-29T04:02:41.008Z,15.20
2022-12-29T04:05:08.304Z,15.17
2022-12-29T04:07:36.317Z,15.17
2022-12-29T04:10:04.049Z,15.17
2022-12-29T04:12:30.774Z,15.18
2022-12-29T04:14:57.490Z,15.19
2022-12-29T04:17:24.232Z,15.20
2022-12-29T04:19:52.169Z,15.22
2022-12-29T04:22:18.887Z,15.25
2022-12-29T04:24:45.629Z,15.28
2022-12-29T04:27:12.372Z,15.34
2022-12-29T04:29:39.104Z,15.36
2022-12-29T04:32:05.940Z,15.37
2022-12-29T04:34:32.642Z,15.42
2022-12-29T04:36:59.373Z,15.45
2022-12-29T04:39:26.122Z,15.47
2022-12-29T04:41:52.853Z,15.48
2022-12-29T04:44:19.615Z,15.46
2022-12-29T04:46:46.389Z,15.43
2022-12-29T04:49:13.373Z,15.42
2022-12-29T04:51:41.048Z,15.41
2022-12-29T04:54:07.757Z,15.39
2022-12-29T04:56:34.485Z,15.39
2022-12-29T04:59:01.270Z,15.37
2022-12-29T05:01:28.041Z,15.33
2022-12-29T05:03:54.819Z,15.31
2022-12-29T05:06:21.611Z,15.30
2022-12-29T05:08:48.315Z,15.28
2022-12-29T05:11:15.296Z,15.29
2022-12-29T05:13:42.041Z,15.29
2022-12-29T05:16:08.979Z,15.28
2022-12-29T05:18:35.772Z,15.27
2022-12-29T05:21:02.525Z,15.26
2022-12-29T05:23:29.257Z,15.22
2022-12-29T05:25:56.111Z,15.24
2022-12-29T05:28:23.011Z,15.23
2022-12-29T05:30:51.898Z,15.22
2022-12-29T05:33:20.136Z,15.22
2022-12-29T05:35:47.086Z,15.20
2022-12-29T05:38:13.856Z,15.20
2022-12-29T05:40:41.267Z,15.17
2022-12-29T05:43:07.978Z,15.15
2022-12-29T05:45:34.777Z,15.12
2022-12-29T05:48:01.586Z,15.12
2022-12-29T05:50:28.361Z,15.11
2022-12-29T05:52:55.105Z,15.09
2022-12-29T05:55:22.113Z,15.08
2022-12-29T05:57:48.895Z,15.11
2022-12-29T06:00:16.203Z,15.12
2022-12-29T06:02:43.717Z,15.13
2022-12-29T06:05:10.738Z,15.13
2022-12-29T06:07:37.617Z,15.13
2022-12-29T06:10:06.681Z,15.14
2022-12-29T06:12:33.460Z,15.13
2022-12-29T06:15:00.209Z,15.13
2022-12-29T06:17:26.937Z,15.13
2022-12-29T06:19:53.640Z,15.13
2022-12-29T06:22:20.417Z,15.14
2022-12-29T06:24:47.222Z,15.13
2022-12-29T06:27:14.817Z,15.14
2022-12-29T06:29:41.832Z,15.13
2022-12-29T06:32:08.727Z,15.13
2022-12-29T06:34:35.669Z,15.15
2022-12-29T06:37:02.712Z,15.17
2022-12-29T06:39:29.497Z,15.17
2022-12-29T06:41:56.291Z,15.18
2022-12-29T06:44:23.954Z,15.18
2022-12-29T06:46:51.437Z,15.18
2022-12-29T06:49:19.309Z,15.18
2022-12-29T06:51:46.413Z,15.18
2022-12-29T06:54:13.629Z,15.19
2022-12-29T06:56:41.271Z,15.22
2022-12-29T06:59:08.235Z,15.21
2022-12-29T07:01:36.833Z,15.22
2022-12-29T07:04:04.783Z,15.23
2022-12-29T07:06:31.593Z,15.21
2022-12-29T07:08:58.489Z,15.20
2022-12-29T07:11:25.427Z,15.19
2022-12-29T07:13:52.660Z,15.17
2022-12-29T07:16:19.861Z,15.15
2022-12-29T07:18:46.757Z,15.13
2022-12-29T07:21:13.590Z,15.10
2022-12-29T07:23:40.583Z,15.07
2022-12-29T07:26:12.118Z,15.07
2022-12-29T07:28:39.331Z,15.05
2022-12-29T07:31:07.139Z,15.05
2022-12-29T07:33:38.506Z,15.03
2022-12-29T07:36:05.873Z,15.06
2022-12-29T07:38:33.337Z,15.06
2022-12-29T07:41:00.283Z,15.06
2022-12-29T07:43:27.127Z,15.05
2022-12-29T07:45:54.052Z,15.04
2022-12-29T07:48:21.345Z,15.05
2022-12-29T07:50:48.186Z,15.02
2022-12-29T07:53:15.784Z,15.01
2022-12-29T07:55:46.080Z,14.99
2022-12-29T07:58:13.042Z,14.96
2022-12-29T08:00:43.614Z,14.94
2022-12-29T08:03:10.438Z,14.93
2022-12-29T08:05:37.341Z,14.90
2022-12-29T08:08:04.492Z,14.87
2022-12-29T08:10:31.274Z,14.82
2022-12-29T08:12:59.047Z,14.83
2022-12-29T08:15:32.109Z,14.80
2022-12-29T08:17:59.203Z,14.77
2022-12-29T08:20:26.450Z,14.77
2022-12-29T08:22:53.259Z,14.78
2022-12-29T08:25:28.558Z,14.77
2022-12-29T08:27:55.694Z,14.78
2022-12-29T08:30:31.895Z,14.79
2022-12-29T08:32:58.809Z,14.82
2022-12-29T08:35:25.636Z,14.83
2022-12-29T08:37:52.619Z,14.91
2022-12-29T08:40:19.335Z,14.97
2022-12-29T08:42:46.152Z,14.99
2022-12-29T08:45:12.949Z,15.11
2022-12-29T08:47:39.913Z,15.34
2022-12-29T08:50:07.611Z,15.58
2022-12-29T08:52:34.383Z,15.87
2022-12-29T08:55:17.893Z,16.14
2022-12-29T08:57:44.644Z,16.43
2022-12-29T09:03:05.661Z,16.96
2022-12-29T09:05:41.500Z,17.24
2022-12-29T09:08:25.531Z,17.61
2022-12-29T09:10:55.662Z,17.97
2022-12-29T09:13:43.923Z,18.30
2022-12-29T09:16:18.711Z,18.59
2022-12-29T09:21:32.493Z,19.06
2022-12-29T09:24:07.311Z,19.26
2022-12-29T09:26:39.355Z,19.38
2022-12-29T09:32:10.575Z,19.56
2022-12-29T09:34:44.920Z,19.76
2022-12-29T09:37:18.992Z,19.97
2022-12-29T09:40:01.766Z,20.15
2022-12-29T09:43:03.097Z,20.30
2022-12-29T09:46:01.204Z,20.16
2022-12-29T09:48:46.797Z,19.92
2022-12-29T09:52:09.017Z,19.73
2022-12-29T09:58:36.074Z,19.54
2022-12-29T10:01:45.528Z,19.43
2022-12-29T10:04:15.487Z,19.36
2022-12-29T10:07:28.421Z,19.22
2022-12-29T10:10:59.876Z,18.99
2022-12-29T10:14:04.816Z,18.69
2022-12-29T10:17:24.112Z,18.43
2022-12-29T10:23:57.907Z,17.95
2022-12-29T10:29:33.379Z,17.62
2022-12-29T10:32:05.584Z,17.55
2022-12-29T10:34:43.207Z,17.58
2022-12-29T10:37:34.232Z,17.70
2022-12-29T10:40:16.880Z,17.80
2022-12-29T10:42:53.344Z,17.92
2022-12-29T10:45:27.257Z,18.13
2022-12-29T10:48:10.082Z,18.52
2022-12-29T10:50:43.655Z,18.96
2022-12-29T10:53:23.760Z,19.38
2022-12-29T10:55:51.590Z,19.73
2022-12-29T10:58:20.978Z,19.97
2022-12-29T11:04:58.515Z,20.46
2022-12-29T11:07:27.700Z,20.64
2022-12-29T11:09:55.454Z,20.79
2022-12-29T11:12:32.079Z,20.90
2022-12-29T11:15:24.332Z,20.89
2022-12-29T11:17:58.800Z,20.81
2022-12-29T11:20:40.281Z,20.59
2022-12-29T11:23:30.713Z,20.34
2022-12-29T11:26:27.586Z,20.08
2022-12-29T11:29:08.950Z,19.85
2022-12-29T11:31:54.804Z,19.51
2022-12-29T11:34:34.655Z,19.24
2022-12-29T11:37:17.571Z,18.98
2022-12-29T11:40:06.316Z,18.66
2022-12-29T11:42:48.477Z,18.37
2022-12-29T11:45:46.116Z,18.09
2022-12-29T11:48:21.980Z,17.89
2022-12-29T11:51:01.843Z,17.67
2022-12-29T11:53:52.558Z,17.42
2022-12-29T11:56:39.970Z,17.24
2022-12-29T11:59:51.429Z,16.99
2022-12-29T12:02:31.114Z,16.85
2022-12-29T12:05:23.362Z,16.76
2022-12-29T12:08:33.645Z,16.71
2022-12-29T12:11:59.295Z,16.75
2022-12-29T12:15:10.678Z,16.87
2022-12-29T12:18:03.182Z,16.98
2022-12-29T12:22:39.608Z,17.08
2022-12-29T12:29:03.796Z,16.99
2022-12-29T12:36:54.292Z,16.95
2022-12-29T12:40:13.807Z,16.96
2022-12-29T12:43:18.662Z,16.97
2022-12-29T12:46:09.977Z,17.00
2022-12-29T12:48:42.311Z,16.96
2022-12-29T12:52:08.773Z,16.88
2022-12-29T12:54:35.427Z,16.83
2022-12-29T12:57:16.914Z,16.78
2022-12-29T13:00:11.913Z,16.70
2022-12-29T13:02:57.083Z,16.63
2022-12-29T13:06:16.279Z,16.53
2022-12-29T13:09:15.171Z,16.42
2022-12-29T13:12:06.847Z,16.33
2022-12-29T13:14:51.900Z,16.24
2022-12-29T13:18:07.791Z,16.17
2022-12-29T13:20:48.365Z,16.13
2022-12-29T13:23:32.322Z,16.10
2022-12-29T13:26:01.799Z,16.10
2022-12-29T13:29:11.039Z,16.08
2022-12-29T13:32:07.570Z,16.06
2022-12-29T13:35:19.635Z,16.03
2022-12-29T13:38:04.219Z,16.01
2022-12-29T13:40:37.080Z,16.00
2022-12-29T13:43:04.214Z,15.97
2022-12-29T13:45:33.816Z,15.95
2022-12-29T13:48:30.584Z,15.84
2022-12-29T13:51:00.865Z,15.80
2022-12-29T13:53:53.603Z,15.73
2022-12-29T13:56:41.991Z,15.69
2022-12-29T13:59:41.912Z,15.62
2022-12-29T14:02:34.514Z,15.61
2022-12-29T14:05:06.311Z,15.61
2022-12-29T14:07:40.847Z,15.63
2022-12-29T14:10:28.850Z,15.61
2022-12-29T14:13:25.661Z,15.60
2022-12-29T14:15:59.647Z,15.52
2022-12-29T14:18:33.766Z,15.48
2022-12-29T14:21:20.996Z,15.42
2022-12-29T14:23:52.067Z,15.36
2022-12-29T14:26:30.945Z,15.32
2022-12-29T14:29:17.704Z,15.27
2022-12-29T14:31:44.607Z,15.26
2022-12-29T14:34:11.316Z,15.27
2022-12-29T14:36:39.510Z,15.26
2022-12-29T14:39:45.554Z,15.26
2022-12-29T14:42:13.236Z,15.22
2022-12-29T14:45:27.669Z,15.18
2022-12-29T14:47:55.960Z,15.16
2022-12-29T14:50:29.123Z,15.17
2022-12-29T14:53:03.516Z,15.16
2022-12-29T14:55:52.915Z,15.14
2022-12-29T14:58:57.332Z,15.06
2022-12-29T15:01:52.916Z,15.02
2022-12-29T15:04:26.079Z,14.99
2022-12-29T15:06:53.845Z,14.95
2022-12-29T15:09:38.104Z,14.90
2022-12-29T15:12:41.593Z,14.83
2022-12-29T15:15:28.142Z,14.79
2022-12-29T15:17:55.001Z,14.75
2022-12-29T15:20:31.363Z,14.72
2022-12-29T15:23:11.506Z,14.66
2022-12-29T15:25:50.545Z,14.61
2022-12-29T15:28:18.051Z,14.55
2022-12-29T15:31:04.150Z,14.50
2022-12-29T15:33:31.316Z,14.45
2022-12-29T15:36:04.591Z,14.39
2022-12-29T15:38:38.578Z,14.35
2022-12-29T15:41:27.739Z,14.28
2022-12-29T15:44:21.576Z,14.19
2022-12-29T15:46:48.377Z,14.13
2022-12-29T15:49:16.162Z,14.09
2022-12-29T15:51:44.612Z,14.03
2022-12-29T15:54:22.352Z,13.99
2022-12-29T15:56:50.923Z,13.91
2022-12-29T15:59:30.915Z,13.87
2022-12-29T16:02:02.048Z,14.10
2022-12-29T16:04:43.271Z,14.02
2022-12-29T16:07:41.561Z,13.87
2022-12-29T16:10:30.030Z,13.75
2022-12-29T16:13:14.887Z,13.71
2022-12-29T16:15:41.599Z,13.67
2022-12-29T16:18:26.587Z,13.64
2022-12-29T16:20:55.306Z,13.62
2022-12-29T16:23:29.279Z,13.57
2022-12-29T16:25:58.577Z,13.55
2022-12-29T16:28:49.216Z,13.49
2022-12-29T16:31:33.083Z,13.45
2022-12-29T16:34:11.142Z,13.41
2022-12-29T16:36:54.578Z,13.38
2022-12-29T16:39:50.867Z,13.29
2022-12-29T16:42:51.233Z,13.29
2022-12-29T16:45:22.389Z,13.24
2022-12-29T16:48:20.323Z,13.22
2022-12-29T16:50:48.099Z,13.19
2022-12-29T16:53:35.013Z,13.17
2022-12-29T16:56:17.407Z,13.13
2022-12-29T16:58:50.325Z,13.11
2022-12-29T17:01:19.765Z,13.09
2022-12-29T17:03:55.610Z,13.07
2022-12-29T17:06:23.903Z,13.04
2022-12-29T17:08:52.775Z,13.04
2022-12-29T17:11:57.692Z,13.02
2022-12-29T17:14:47.125Z,12.96
2022-12-29T17:17:18.217Z,12.92
2022-12-29T17:19:51.345Z,12.91
2022-12-29T17:22:27.906Z,12.90
2022-12-29T17:24:57.840Z,12.88
2022-12-29T17:27:49.889Z,12.88
2022-12-29T17:30:24.266Z,12.85
2022-12-29T17:33:00.992Z,12.86
2022-12-29T17:35:29.038Z,12.88
2022-12-29T17:37:55.958Z,12.91
2022-12-29T17:40:28.158Z,12.92
2022-12-29T17:42:58.346Z,12.97
2022-12-29T17:45:32.140Z,12.97
2022-12-29T17:48:01.607Z,13.01
2022-12-29T17:50:31.489Z,13.06
2022-12-29T17:53:03.337Z,13.04
2022-12-29T17:55:37.171Z,13.04
2022-12-29T17:58:26.510Z,13.02
2022-12-29T18:00:57.140Z,13.00
2022-12-29T18:03:31.472Z,12.96
2022-12-29T18:05:58.886Z,12.88
2022-12-29T18:08:25.734Z,12.81
2022-12-29T18:10:54.425Z,12.74
2022-12-29T18:13:26.399Z,12.67
2022-12-29T18:15:56.768Z,12.60
2022-12-29T18:18:27.098Z,12.52
2022-12-29T18:21:03.073Z,12.48
2022-12-29T18:28:16.943Z,12.26
2022-12-29T18:30:50.684Z,12.23
2022-12-29T18:33:23.433Z,12.23
2022-12-29T18:36:04.205Z,12.22
2022-12-29T18:39:38.072Z,12.20
2022-12-29T18:43:04.336Z,12.12
2022-12-29T18:50:06.871Z,11.98
2022-12-29T18:57:21.758Z,11.86
2022-12-29T19:06:49.801Z,11.73
2022-12-29T19:13:21.726Z,11.65
2022-12-29T19:16:01.250Z,11.63
2022-12-29T19:18:45.950Z,11.63
2022-12-29T19:25:00.066Z,11.59
2022-12-29T19:27:33.789Z,11.53
2022-12-29T19:30:19.664Z,11.50
2022-12-29T19:32:52.877Z,11.51
2022-12-29T19:35:22.786Z,11.51
2022-12-29T19:37:52.211Z,11.47
2022-12-29T19:40:23.050Z,11.48
2022-12-29T19:42:51.382Z,11.47
2022-12-29T19:45:25.918Z,11.46
2022-12-29T19:48:06.114Z,11.45
2022-12-29T19:50:42.407Z,11.41
2022-12-29T19:53:15.508Z,11.41
2022-12-29T19:56:03.309Z,11.41
2022-12-29T19:58:35.711Z,11.39
2022-12-29T20:01:26.477Z,11.37
2022-12-29T20:04:11.211Z,11.36
2022-12-29T20:06:38.036Z,11.32
2022-12-29T20:09:17.394Z,11.33
2022-12-29T20:11:44.241Z,11.34
2022-12-29T20:14:11.496Z,11.32
2022-12-29T20:17:09.067Z,11.34
2022-12-29T20:19:28.625Z,11.30
2022-12-29T20:21:55.530Z,11.31
2022-12-29T20:24:22.391Z,11.31
2022-12-29T20:26:49.817Z,11.30
2022-12-29T20:29:16.666Z,11.32
2022-12-29T20:31:43.570Z,11.31
2022-12-29T20:34:10.726Z,11.31
2022-12-29T20:36:42.039Z,11.33
2022-12-29T20:39:15.499Z,11.33
2022-12-29T20:41:43.711Z,11.36
2022-12-29T20:44:11.121Z,11.37
2022-12-29T20:46:43.609Z,11.37
2022-12-29T20:49:11.345Z,11.38
2022-12-29T20:52:04.906Z,11.40
2022-12-29T20:54:25.010Z,11.40
2022-12-29T20:56:52.408Z,11.40
2022-12-29T20:59:28.205Z,11.38
2022-12-29T21:01:57.332Z,11.37
2022-12-29T21:04:24.335Z,11.35
2022-12-29T21:06:51.120Z,11.36
2022-12-29T21:09:17.965Z,11.35
2022-12-29T21:11:44.758Z,11.35
2022-12-29T21:14:11.628Z,11.34
2022-12-29T21:16:38.761Z,11.34
2022-12-29T21:19:05.634Z,11.32
2022-12-29T21:21:32.480Z,11.32
2022-12-29T21:24:05.469Z,11.31
2022-12-29T21:26:33.836Z,11.30
2022-12-29T21:29:03.087Z,11.28
2022-12-29T21:31:36.027Z,11.28
2022-12-29T21:34:05.579Z,11.27
2022-12-29T21:36:33.211Z,11.27
2022-12-29T21:39:03.140Z,11.26
2022-12-29T21:41:30.296Z,11.26
2022-12-29T21:44:17.340Z,11.25
2022-12-29T21:46:46.876Z,11.21
2022-12-29T21:49:13.731Z,11.24
2022-12-29T21:51:57.350Z,11.24
2022-12-29T21:54:46.834Z,11.25
2022-12-29T21:57:37.043Z,11.21
2022-12-29T22:00:27.983Z,11.18
2022-12-29T22:03:22.147Z,11.17
2022-12-29T22:06:10.002Z,11.15
2022-12-29T22:08:56.355Z,11.15
2022-12-29T22:11:44.867Z,11.14
2022-12-29T22:14:12.999Z,11.14
2022-12-29T22:16:40.019Z,11.14
2022-12-29T22:19:08.713Z,11.15
2022-12-29T22:21:35.675Z,11.16
2022-12-29T22:24:04.563Z,11.20
2022-12-29T22:26:33.878Z,11.21
2022-12-29T22:29:00.925Z,11.19
2022-12-29T22:31:30.693Z,11.21
2022-12-29T22:34:00.355Z,11.21
2022-12-29T22:36:30.359Z,11.25
2022-12-29T22:39:00.264Z,11.26
2022-12-29T22:41:27.287Z,11.24
2022-12-29T22:43:55.029Z,11.26
2022-12-29T22:46:22.543Z,11.26
2022-12-29T22:48:52.200Z,11.27
2022-12-29T22:51:19.545Z,11.27
2022-12-29T22:53:51.505Z,11.27
2022-12-29T22:56:19.063Z,11.23
2022-12-29T22:58:48.548Z,11.27
2022-12-29T23:01:21.410Z,11.25
2022-12-29T23:03:50.262Z,11.26
2022-12-29T23:06:17.740Z,11.24
2022-12-29T23:08:45.193Z,11.25
2022-12-29T23:11:13.640Z,11.23
2022-12-29T23:13:42.170Z,11.25
2022-12-29T23:16:11.302Z,11.21
2022-12-29T23:18:38.291Z,11.22
2022-12-29T23:21:06.069Z,11.21
2022-12-29T23:23:51.668Z,11.23
2022-12-29T23:26:30.826Z,11.21
2022-12-29T23:29:00.761Z,11.21
2022-12-29T23:31:29.841Z,11.20
2022-12-29T23:33:57.422Z,11.21
2022-12-29T23:36:24.793Z,11.20
2022-12-29T23:38:51.663Z,11.22
2022-12-29T23:41:18.583Z,11.21
2022-12-29T23:43:45.657Z,11.20
2022-12-29T23:46:25.380Z,11.20
2022-12-29T23:48:52.272Z,11.17
2022-12-29T23:56:10.925Z,11.11
2022-12-29T23:59:15.194Z,11.04
